createdAt,value
2018-09-07T00:04:09.049Z,16
2018-09-07T00:09:11.556Z,14
2018-09-07T00:14:13.980Z,14
2018-09-07T00:19:16.460Z,17
2018-09-07T00:24:18.900Z,15
2018-09-07T00:29:21.363Z,16
2018-09-07T00:34:23.801Z,17
2018-09-07T00:39:26.609Z,17
2018-09-07T00:44:28.720Z,19
2018-09-07T00:49:31.219Z,18
2018-09-07T00:54:33.720Z,16
2018-09-07T00:59:36.164Z,17
2018-09-07T01:04:38.565Z,15
2018-09-07T01:09:41.094Z,14
2018-09-07T01:14:43.459Z,13
2018-09-07T01:19:45.943Z,14
2018-09-07T01:24:48.399Z,13
2018-09-07T01:29:50.838Z,14
2018-09-07T01:34:53.525Z,13
2018-09-07T01:39:55.823Z,13
2018-09-07T01:44:58.415Z,13
2018-09-07T01:50:00.784Z,16
2018-09-07T01:55:03.173Z,13
2018-09-07T02:00:05.638Z,14
2018-09-07T02:05:08.146Z,15
2018-09-07T02:15:12.968Z,15
2018-09-07T02:20:15.444Z,15
2018-09-07T02:25:17.884Z,14
2018-09-07T02:30:20.417Z,16
2018-09-07T02:35:23.152Z,17
2018-09-07T02:40:25.256Z,19
2018-09-07T02:45:27.730Z,16
2018-09-07T02:50:30.178Z,18
2018-09-07T02:55:32.635Z,16
2018-09-07T03:00:35.088Z,17
2018-09-07T03:05:37.550Z,18
2018-09-07T03:10:40.000Z,19
2018-09-07T03:15:42.459Z,19
2018-09-07T03:20:44.915Z,20
2018-09-07T03:25:47.378Z,19
2018-09-07T03:30:49.836Z,21
2018-09-07T03:35:52.649Z,18
2018-09-07T03:40:54.754Z,20
2018-09-07T03:45:57.258Z,19
2018-09-07T03:50:59.669Z,19
2018-09-07T03:56:02.141Z,20
2018-09-07T04:01:09.604Z,22
2018-09-07T04:06:07.075Z,21
2018-09-07T04:11:09.532Z,23
2018-09-07T04:16:11.985Z,22
2018-09-07T04:21:14.446Z,49
2018-09-07T04:26:16.904Z,24
2018-09-07T04:31:19.338Z,25
2018-09-07T04:36:21.813Z,25
2018-09-07T04:41:24.249Z,24
2018-09-07T04:46:26.745Z,26
2018-09-07T04:51:29.548Z,28
2018-09-07T04:56:31.714Z,26
2018-09-07T05:01:34.081Z,27
2018-09-07T05:06:36.554Z,30
2018-09-07T05:11:38.986Z,28
2018-09-07T05:16:41.453Z,28
2018-09-07T05:21:43.924Z,29
2018-09-07T05:26:46.419Z,31
2018-09-07T05:31:48.906Z,30
2018-09-07T05:36:51.293Z,32
2018-09-07T05:41:53.794Z,34
2018-09-07T05:46:56.249Z,36
2018-09-07T05:51:58.695Z,29
2018-09-07T05:57:01.129Z,31
2018-09-07T06:02:03.578Z,30
2018-09-07T06:07:06.041Z,30
2018-09-07T06:12:08.693Z,28
2018-09-07T06:17:10.951Z,29
2018-09-07T06:22:13.535Z,31
2018-09-07T06:27:15.885Z,29
2018-09-07T06:32:18.560Z,31
2018-09-07T06:37:20.780Z,30
2018-09-07T06:42:23.240Z,29
2018-09-07T06:47:25.710Z,27
2018-09-07T06:52:28.157Z,29
2018-09-07T06:57:30.618Z,26
2018-09-07T07:02:33.139Z,27
2018-09-07T07:07:35.546Z,25
2018-09-07T07:12:38.005Z,28
2018-09-07T07:17:40.502Z,27
2018-09-07T07:22:42.917Z,27
2018-09-07T07:27:45.388Z,26
2018-09-07T07:32:47.978Z,28
2018-09-07T07:37:50.324Z,27
2018-09-07T07:42:53.025Z,25
2018-09-07T07:47:55.336Z,26
2018-09-07T07:52:57.679Z,25
2018-09-07T07:58:00.133Z,25
2018-09-07T08:03:02.609Z,27
2018-09-07T08:08:05.034Z,29
2018-09-07T08:13:07.541Z,31
2018-09-07T08:18:09.955Z,30
2018-09-07T08:23:12.445Z,30
2018-09-07T08:28:14.871Z,30
2018-09-07T08:33:17.344Z,26
2018-09-07T08:38:19.785Z,25
2018-09-07T08:43:22.273Z,24
2018-09-07T08:48:24.721Z,26
2018-09-07T08:53:27.164Z,23
2018-09-07T08:58:29.632Z,25
2018-09-07T09:03:32.089Z,23
2018-09-07T09:08:34.540Z,26
2018-09-07T09:13:37.061Z,23
2018-09-07T09:18:39.490Z,21
2018-09-07T09:23:42.083Z,20
2018-09-07T09:28:44.409Z,22
2018-09-07T09:33:46.844Z,22
2018-09-07T09:38:49.346Z,24
2018-09-07T09:43:52.840Z,25
2018-09-07T09:48:54.259Z,23
2018-09-07T09:53:56.676Z,25
2018-09-07T09:58:59.122Z,22
2018-09-07T10:04:01.723Z,24
2018-09-07T10:09:04.124Z,24
2018-09-07T10:14:06.877Z,26
2018-09-07T10:19:09.058Z,26
2018-09-07T10:24:11.417Z,27
2018-09-07T10:29:13.939Z,29
2018-09-07T10:34:16.332Z,30
2018-09-07T10:39:18.872Z,30
2018-09-07T10:44:21.482Z,34
2018-09-07T10:49:23.713Z,37
2018-09-07T10:54:26.158Z,35
2018-09-07T10:59:28.753Z,36
2018-09-07T11:04:31.074Z,40
2018-09-07T11:09:33.547Z,36
2018-09-07T11:14:36.083Z,38
2018-09-07T11:19:38.686Z,42
2018-09-07T11:24:40.921Z,42
2018-09-07T11:29:43.395Z,41
2018-09-07T11:34:45.854Z,44
2018-09-07T11:39:48.292Z,47
2018-09-07T11:44:50.748Z,45
2018-09-07T11:49:53.240Z,45
2018-09-07T11:54:55.855Z,48
2018-09-07T11:59:58.123Z,47
2018-09-07T12:05:00.590Z,42
2018-09-07T12:10:03.138Z,41
2018-09-07T12:15:05.516Z,42
2018-09-07T12:20:08.003Z,40
2018-09-07T12:25:10.438Z,35
2018-09-07T12:30:12.903Z,39
2018-09-07T12:35:15.337Z,32
2018-09-07T12:40:17.808Z,35
2018-09-07T12:45:20.255Z,35
2018-09-07T12:50:22.731Z,35
2018-09-07T12:55:25.210Z,34
2018-09-07T13:00:27.669Z,36
2018-09-07T13:05:30.101Z,31
2018-09-07T13:10:32.557Z,32
2018-09-07T13:15:35.008Z,30
2018-09-07T13:20:37.545Z,34
2018-09-07T13:25:40.104Z,33
2018-09-07T13:30:42.577Z,28
2018-09-07T13:35:45.253Z,30
2018-09-07T13:40:47.330Z,29
2018-09-07T13:45:49.769Z,33
2018-09-07T13:50:52.255Z,28
2018-09-07T13:55:54.920Z,30
2018-09-07T14:00:57.137Z,26
2018-09-07T14:05:59.604Z,25
2018-09-07T14:11:02.059Z,24
2018-09-07T14:16:04.801Z,20
2018-09-07T14:21:06.963Z,22
2018-09-07T14:26:09.570Z,23
2018-09-07T14:31:11.893Z,22
2018-09-07T14:36:14.430Z,23
2018-09-07T14:41:16.807Z,22
2018-09-07T14:46:19.273Z,22
2018-09-07T14:51:21.716Z,22
2018-09-07T14:56:24.184Z,20
2018-09-07T15:01:26.650Z,18
2018-09-07T15:06:29.099Z,21
2018-09-07T15:11:31.579Z,17
2018-09-07T15:16:34.061Z,19
2018-09-07T15:21:36.477Z,18
2018-09-07T15:26:38.930Z,17
2018-09-07T15:31:41.392Z,17
2018-09-07T15:36:43.845Z,19
2018-09-07T15:41:46.431Z,18
2018-09-07T15:46:48.772Z,19
2018-09-07T15:51:51.305Z,18
2018-09-07T15:56:53.684Z,18
2018-09-07T16:01:56.140Z,17
2018-09-07T16:06:58.613Z,14
2018-09-07T16:12:01.057Z,15
2018-09-07T16:17:03.527Z,21
2018-09-07T16:22:06.003Z,16
2018-09-07T16:27:08.434Z,16
2018-09-07T16:32:10.930Z,17
2018-09-07T16:37:13.367Z,16
2018-09-07T16:42:15.892Z,16
2018-09-07T16:47:18.281Z,19
2018-09-07T16:52:20.742Z,17
2018-09-07T16:57:23.193Z,22
2018-09-07T17:02:25.654Z,19
2018-09-07T17:07:28.127Z,21
2018-09-07T17:12:31.132Z,29
2018-09-07T17:22:35.493Z,20
2018-09-07T17:27:37.940Z,22
2018-09-07T17:32:40.413Z,19
2018-09-07T17:37:42.999Z,21
2018-09-07T17:42:45.331Z,24
2018-09-07T17:47:47.774Z,23
2018-09-07T17:52:50.259Z,25
2018-09-07T17:57:52.693Z,16
2018-09-07T18:02:55.153Z,16
2018-09-07T18:07:57.600Z,13
2018-09-07T18:13:00.075Z,11
2018-09-07T18:18:02.537Z,9
2018-09-07T18:23:05.009Z,9
2018-09-07T18:28:07.956Z,8
2018-09-07T18:33:09.897Z,9
2018-09-07T18:38:12.380Z,10
2018-09-07T18:43:14.885Z,9
2018-09-07T18:48:17.298Z,10
2018-09-07T18:53:19.839Z,10
2018-09-07T18:58:22.471Z,10
2018-09-07T19:03:24.657Z,11
2018-09-07T19:08:27.127Z,12
2018-09-07T19:13:29.605Z,13
2018-09-07T19:18:32.019Z,15
2018-09-07T19:23:34.519Z,11
2018-09-07T19:28:36.985Z,11
2018-09-07T19:33:39.411Z,12
2018-09-07T19:38:42.336Z,12
2018-09-07T19:43:44.325Z,18
2018-09-07T19:48:46.768Z,14
2018-09-07T19:53:49.225Z,14
2018-09-07T20:03:54.151Z,16
2018-09-07T20:08:56.594Z,16
2018-09-07T20:13:59.137Z,15
2018-09-07T20:19:01.651Z,14
2018-09-07T20:24:03.996Z,13
2018-09-07T20:29:06.452Z,14
2018-09-07T20:34:11.451Z,12
2018-09-07T20:39:11.350Z,13
2018-09-07T20:44:13.853Z,10
2018-09-07T20:49:16.262Z,11
2018-09-07T20:54:18.733Z,10
2018-09-07T20:59:21.203Z,8
2018-09-07T21:04:23.648Z,11
2018-09-07T21:09:26.154Z,12
2018-09-07T21:14:28.676Z,16
2018-09-07T21:19:31.050Z,13
2018-09-07T21:24:33.480Z,14
2018-09-07T21:29:35.968Z,13
2018-09-07T21:34:38.541Z,14
2018-09-07T21:39:40.858Z,12
2018-09-07T21:44:43.554Z,11
2018-09-07T21:49:45.780Z,11
2018-09-07T21:54:48.255Z,12
2018-09-07T21:59:50.693Z,12
2018-09-07T22:04:53.148Z,10
2018-09-07T22:09:55.690Z,14
2018-09-07T22:14:58.047Z,13
2018-09-07T22:20:00.545Z,16
2018-09-07T22:25:03.010Z,12
2018-09-07T22:30:05.459Z,12
2018-09-07T22:35:07.877Z,19
2018-09-07T22:40:10.364Z,14
2018-09-07T22:45:12.854Z,14
2018-09-07T22:50:15.332Z,16
2018-09-07T23:00:20.183Z,12
2018-09-07T23:05:22.638Z,16
2018-09-07T23:10:25.148Z,12
2018-09-07T23:15:27.554Z,14
2018-09-07T23:20:30.014Z,15
2018-09-07T23:25:32.523Z,11
2018-09-07T23:30:34.948Z,12
2018-09-07T23:35:37.396Z,11
2018-09-07T23:40:39.856Z,13
2018-09-07T23:45:42.364Z,13
2018-09-07T23:50:44.758Z,11
2018-09-07T23:55:47.274Z,16
